Airport ID:CYTF
Update Time (UTC):26/06/2019 16:58
Wind Speed (Knots):7
Wind Direction (Magnetic):250
Temperature (°C):25.4
Dew Point (°C):16.3
Humidity (%):57
Altimeter (inHg):29.92
Density Altitude (Feet):02000
Visibility (Miles):6
Clouds (Hundreds of feet):SCT040 SCT046
Present Weather:
METAR:METAR CYTF 261700Z AUTO 23007KT 180V290 10SM SCT040 SCT046 25/17 A2991

The data displayed is for advisory purposes only and is not to be used for flight planning or operations.

This page is not automatically refreshed. Reload the page to see current data.